createdAt,value
2018-09-08T00:02:06.959Z,63.30
2018-09-08T00:04:35.292Z,63.20
2018-09-08T00:07:09.134Z,63.00
2018-09-08T00:09:37.507Z,64.90
2018-09-08T00:12:06.245Z,65.70
2018-09-08T00:14:33.844Z,66.10
2018-09-08T00:17:07.708Z,66.20
2018-09-08T00:19:41.429Z,66.00
2018-09-08T00:22:15.238Z,65.30
2018-09-08T00:24:48.910Z,64.30
2018-09-08T00:27:21.482Z,63.00
2018-09-08T00:29:51.061Z,63.00
2018-09-08T00:32:20.831Z,62.50
2018-09-08T00:34:49.166Z,62.90
2018-09-08T00:37:17.500Z,62.90
2018-09-08T00:39:50.422Z,62.80
2018-09-08T00:42:18.816Z,62.80
2018-09-08T00:44:47.169Z,62.70
2018-09-08T00:47:15.747Z,62.70
2018-09-08T00:49:44.090Z,62.50
2018-09-08T00:52:12.449Z,62.50
2018-09-08T00:54:40.911Z,63.10
2018-09-08T00:57:09.511Z,64.70
2018-09-08T00:59:37.838Z,65.80
2018-09-08T01:02:06.170Z,65.00
2018-09-08T01:04:36.176Z,65.00
2018-09-08T01:07:04.533Z,65.70
2018-09-08T01:09:32.865Z,65.60
2018-09-08T01:12:01.195Z,65.60
2018-09-08T01:14:29.524Z,65.90
2018-09-08T01:16:57.861Z,66.00
2018-09-08T01:19:26.211Z,66.10
2018-09-08T01:21:54.546Z,66.20
2018-09-08T01:24:22.854Z,66.00
2018-09-08T01:26:51.197Z,66.10
2018-09-08T01:29:19.520Z,66.20
2018-09-08T01:31:47.863Z,65.90
2018-09-08T01:34:16.183Z,64.90
2018-09-08T01:36:45.122Z,65.80
2018-09-08T01:39:13.483Z,66.10
2018-09-08T01:41:41.807Z,66.20
2018-09-08T01:44:10.673Z,65.80
2018-09-08T01:46:39.062Z,66.10
2018-09-08T01:49:07.429Z,66.60
2018-09-08T01:51:35.763Z,67.10
2018-09-08T01:54:04.119Z,66.90
2018-09-08T01:56:32.443Z,66.60
2018-09-08T01:59:00.751Z,65.10
2018-09-08T02:01:29.073Z,65.00
2018-09-08T02:03:57.490Z,65.60
2018-09-08T02:06:25.819Z,65.80
2018-09-08T02:08:54.151Z,65.90
2018-09-08T02:11:23.200Z,66.90
2018-09-08T02:13:52.103Z,67.30
2018-09-08T02:16:20.447Z,68.00
2018-09-08T02:18:48.806Z,68.60
2018-09-08T02:21:17.179Z,68.70
2018-09-08T02:23:45.623Z,69.60
2018-09-08T02:26:14.035Z,69.20
2018-09-08T02:28:42.381Z,69.30
2018-09-08T02:31:10.716Z,69.50
2018-09-08T02:33:39.058Z,69.50
2018-09-08T02:36:07.424Z,69.40
2018-09-08T02:38:35.739Z,69.40
2018-09-08T02:41:04.137Z,69.30
2018-09-08T02:43:32.476Z,69.50
2018-09-08T02:46:00.812Z,69.20
2018-09-08T02:48:29.143Z,69.30
2018-09-08T02:50:56.397Z,69.00
2018-09-08T02:53:23.659Z,69.10
2018-09-08T02:55:50.909Z,69.20
2018-09-08T02:58:18.191Z,69.20
2018-09-08T03:00:45.430Z,68.90
2018-09-08T03:03:12.683Z,68.80
2018-09-08T03:05:39.982Z,68.40
2018-09-08T03:08:07.219Z,67.70
2018-09-08T03:10:34.515Z,67.80
2018-09-08T03:13:01.771Z,67.80
2018-09-08T03:15:29.024Z,67.70
2018-09-08T03:17:56.287Z,67.70
2018-09-08T03:20:23.559Z,68.40
2018-09-08T03:22:50.872Z,67.70
2018-09-08T03:25:18.129Z,67.40
2018-09-08T03:27:45.406Z,67.00
2018-09-08T03:30:12.679Z,66.90
2018-09-08T03:32:39.935Z,67.20
2018-09-08T03:35:07.206Z,67.70
2018-09-08T03:37:34.457Z,67.90
2018-09-08T03:40:01.739Z,67.90
2018-09-08T03:42:29.000Z,67.80
2018-09-08T03:44:56.267Z,67.60
2018-09-08T03:47:23.547Z,67.40
2018-09-08T03:49:50.812Z,67.30
2018-09-08T03:52:18.114Z,67.40
2018-09-08T03:54:45.390Z,67.30
2018-09-08T03:57:12.652Z,67.20
2018-09-08T03:59:39.916Z,67.10
2018-09-08T04:02:07.239Z,67.30
2018-09-08T04:04:35.622Z,67.30
2018-09-08T04:07:03.978Z,67.30
2018-09-08T04:09:32.276Z,67.50
2018-09-08T04:12:00.690Z,67.70
2018-09-08T04:14:29.012Z,67.60
2018-09-08T04:16:57.318Z,67.50
2018-09-08T04:19:25.724Z,67.70
2018-09-08T04:21:54.043Z,67.60
2018-09-08T04:24:22.422Z,67.20
2018-09-08T04:26:51.296Z,67.20
2018-09-08T04:29:19.736Z,67.50
2018-09-08T04:31:48.040Z,67.50
2018-09-08T04:34:16.416Z,67.60
2018-09-08T04:36:44.722Z,67.70
2018-09-08T04:39:13.092Z,67.80
2018-09-08T04:41:41.404Z,67.70
2018-09-08T04:44:09.783Z,67.60
2018-09-08T04:46:38.132Z,67.40
2018-09-08T04:49:06.554Z,66.70
2018-09-08T04:51:34.816Z,66.70
2018-09-08T04:54:03.267Z,66.90
2018-09-08T04:56:31.748Z,66.90
2018-09-08T04:59:00.254Z,67.30
2018-09-08T05:01:28.575Z,67.00
2018-09-08T05:03:56.926Z,67.40
2018-09-08T05:06:25.354Z,67.60
2018-09-08T05:08:53.814Z,67.70
2018-09-08T05:11:22.128Z,68.20
2018-09-08T05:13:50.437Z,67.50
2018-09-08T05:16:18.761Z,67.00
2018-09-08T05:18:47.106Z,66.90
2018-09-08T05:21:16.061Z,67.20
2018-09-08T05:23:44.410Z,67.60
2018-09-08T05:26:12.716Z,67.50
2018-09-08T05:28:41.229Z,67.50
2018-09-08T05:31:09.512Z,67.30
2018-09-08T05:33:37.852Z,67.10
2018-09-08T05:36:06.244Z,66.80
2018-09-08T05:38:34.580Z,66.40
2018-09-08T05:41:02.956Z,66.60
2018-09-08T05:43:31.379Z,67.30
2018-09-08T05:45:59.716Z,66.80
2018-09-08T05:48:28.588Z,66.90
2018-09-08T05:50:57.562Z,67.20
2018-09-08T05:53:25.932Z,67.50
2018-09-08T05:55:54.338Z,67.30
2018-09-08T05:58:22.685Z,67.10
2018-09-08T06:00:51.043Z,67.10
2018-09-08T06:03:19.366Z,67.20
2018-09-08T06:05:47.798Z,68.00
2018-09-08T06:08:16.134Z,67.70
2018-09-08T06:10:44.449Z,68.00
2018-09-08T06:13:12.753Z,68.10
2018-09-08T06:15:41.140Z,68.00
2018-09-08T06:18:09.586Z,67.90
2018-09-08T06:20:37.968Z,67.60
2018-09-08T06:23:06.055Z,67.30
2018-09-08T06:25:34.446Z,66.60
2018-09-08T06:28:02.728Z,66.50
2018-09-08T06:30:31.244Z,66.60
2018-09-08T06:32:59.608Z,66.80
2018-09-08T06:35:27.959Z,66.20
2018-09-08T06:37:56.282Z,66.20
2018-09-08T06:40:24.851Z,66.40
2018-09-08T06:42:53.236Z,66.00
2018-09-08T06:45:21.672Z,65.70
2018-09-08T06:47:50.028Z,65.30
2018-09-08T06:50:18.371Z,65.00
2018-09-08T06:52:46.708Z,65.00
2018-09-08T06:55:15.123Z,65.20
2018-09-08T06:57:43.534Z,65.80
2018-09-08T07:00:11.811Z,65.50
2018-09-08T07:02:40.150Z,66.50
2018-09-08T07:05:08.518Z,67.00
2018-09-08T07:07:36.925Z,67.40
2018-09-08T07:10:05.279Z,67.00
2018-09-08T07:12:33.631Z,66.80
2018-09-08T07:15:02.091Z,67.00
2018-09-08T07:17:30.400Z,66.60
2018-09-08T07:19:59.121Z,67.10
2018-09-08T07:22:27.933Z,66.40
2018-09-08T07:24:57.286Z,65.70
2018-09-08T07:27:25.581Z,66.20
2018-09-08T07:29:53.907Z,65.70
2018-09-08T07:32:22.815Z,65.60
2018-09-08T07:34:51.172Z,66.30
2018-09-08T07:37:20.367Z,65.70
2018-09-08T07:39:48.695Z,65.50
2018-09-08T07:42:17.021Z,65.90
2018-09-08T07:44:46.279Z,66.20
2018-09-08T07:47:15.115Z,66.20
2018-09-08T07:49:43.477Z,65.90
2018-09-08T07:52:11.835Z,64.90
2018-09-08T07:54:40.195Z,66.10
2018-09-08T07:57:09.715Z,65.60
2018-09-08T07:59:38.536Z,65.50
2018-09-08T08:02:07.074Z,66.40
2018-09-08T08:04:35.555Z,65.50
2018-09-08T08:07:03.915Z,66.50
2018-09-08T08:09:33.216Z,65.80
2018-09-08T08:12:01.573Z,64.70
2018-09-08T08:14:30.043Z,65.60
2018-09-08T08:16:58.348Z,65.80
2018-09-08T08:19:26.711Z,65.70
2018-09-08T08:21:55.032Z,65.90
2018-09-08T08:24:23.422Z,65.50
2018-09-08T08:26:51.861Z,65.90
2018-09-08T08:29:20.230Z,65.40
2018-09-08T08:31:49.136Z,65.70
2018-09-08T08:34:17.959Z,65.60
2018-09-08T08:36:46.962Z,64.80
2018-09-08T08:39:15.327Z,64.90
2018-09-08T08:41:43.652Z,65.00
2018-09-08T08:44:11.996Z,64.20
2018-09-08T08:46:40.356Z,64.00
2018-09-08T08:49:08.792Z,65.60
2018-09-08T08:51:48.277Z,64.80
2018-09-08T08:54:21.589Z,64.60
2018-09-08T08:56:49.910Z,61.50
2018-09-08T08:59:18.301Z,63.10
2018-09-08T09:01:46.640Z,62.70
2018-09-08T09:04:14.973Z,62.10
2018-09-08T09:06:43.466Z,60.80
2018-09-08T09:09:13.636Z,58.90
2018-09-08T09:11:44.019Z,56.20
2018-09-08T09:14:13.015Z,55.70
2018-09-08T09:16:42.260Z,57.10
2018-09-08T09:19:36.092Z,55.40
2018-09-08T09:22:17.080Z,51.90
2018-09-08T09:24:50.914Z,51.80
2018-09-08T09:27:18.730Z,51.00
2018-09-08T09:29:47.071Z,47.60
2018-09-08T09:32:15.482Z,43.90
2018-09-08T09:34:43.864Z,46.50
2018-09-08T09:37:13.096Z,41.80
2018-09-08T09:39:41.466Z,44.00
2018-09-08T09:42:10.030Z,39.00
2018-09-08T09:44:38.382Z,38.00
2018-09-08T09:47:06.732Z,38.70
2018-09-08T09:49:35.234Z,38.40
2018-09-08T09:52:04.468Z,38.20
2018-09-08T09:54:33.244Z,37.60
2018-09-08T09:57:01.589Z,38.60
2018-09-08T09:59:29.910Z,35.80
2018-09-08T10:02:03.984Z,36.00
2018-09-08T10:04:32.372Z,35.20
2018-09-08T10:07:00.825Z,35.90
2018-09-08T10:09:29.279Z,33.20
2018-09-08T10:11:57.610Z,34.80
2018-09-08T10:14:25.964Z,34.80
2018-09-08T10:16:54.314Z,35.80
2018-09-08T10:19:22.676Z,36.30
2018-09-08T10:21:51.133Z,35.50
2018-09-08T10:24:19.483Z,33.40
2018-09-08T10:26:47.820Z,33.80
2018-09-08T10:29:16.138Z,33.80
2018-09-08T10:31:44.520Z,32.30
2018-09-08T10:34:12.976Z,32.90
2018-09-08T10:36:41.323Z,32.30
2018-09-08T10:39:09.677Z,31.30
2018-09-08T10:41:38.079Z,29.60
2018-09-08T10:44:06.472Z,31.30
2018-09-08T10:46:35.543Z,29.80
2018-09-08T10:49:03.962Z,30.50
2018-09-08T10:51:43.905Z,29.70
2018-09-08T10:54:13.105Z,30.00
2018-09-08T10:56:41.477Z,31.20
2018-09-08T10:59:09.816Z,30.00
2018-09-08T11:01:38.314Z,29.20
2018-09-08T11:04:07.314Z,30.00
2018-09-08T11:06:35.799Z,30.10
2018-09-08T11:09:05.105Z,30.00
2018-09-08T11:11:33.444Z,29.70
2018-09-08T11:14:01.884Z,29.40
2018-09-08T11:16:30.220Z,29.40
2018-09-08T11:18:58.714Z,29.10
2018-09-08T11:21:27.068Z,28.40
2018-09-08T11:24:02.428Z,27.90
2018-09-08T11:26:31.753Z,28.10
2018-09-08T11:29:00.282Z,28.00
2018-09-08T11:31:28.762Z,28.00
2018-09-08T11:33:57.154Z,28.00
2018-09-08T11:36:25.778Z,28.20
2018-09-08T11:38:54.222Z,29.00
2018-09-08T11:41:23.181Z,28.40
2018-09-08T11:43:55.808Z,27.70
2018-09-08T11:46:24.220Z,28.40
2018-09-08T11:48:53.193Z,29.30
2018-09-08T11:51:28.106Z,27.80
2018-09-08T11:53:56.437Z,28.00
2018-09-08T11:56:25.548Z,27.80
2018-09-08T11:58:53.960Z,28.10
2018-09-08T12:01:22.752Z,28.60
2018-09-08T12:03:51.277Z,26.90
2018-09-08T12:06:20.208Z,27.10
2018-09-08T12:08:49.206Z,27.70
2018-09-08T12:11:17.640Z,27.10
2018-09-08T12:13:46.066Z,27.50
2018-09-08T12:16:14.519Z,26.60
2018-09-08T12:18:43.018Z,26.40
2018-09-08T12:21:11.377Z,26.80
2018-09-08T12:23:39.720Z,26.80
2018-09-08T12:26:08.500Z,26.70
2018-09-08T12:28:37.499Z,27.10
2018-09-08T12:31:05.978Z,25.80
2018-09-08T12:33:34.353Z,26.60
2018-09-08T12:36:02.867Z,26.70
2018-09-08T12:38:31.437Z,26.10
2018-09-08T12:40:59.890Z,26.10
2018-09-08T12:43:28.234Z,25.20
2018-09-08T12:45:56.623Z,24.70
2018-09-08T12:48:24.941Z,25.70
2018-09-08T12:50:53.620Z,25.10
2018-09-08T12:53:22.098Z,24.90
2018-09-08T12:55:50.543Z,25.40
2018-09-08T12:58:18.873Z,25.50
2018-09-08T13:00:47.226Z,26.40
2018-09-08T13:03:16.253Z,26.20
2018-09-08T13:05:44.691Z,26.20
2018-09-08T13:08:13.067Z,26.00
2018-09-08T13:10:41.452Z,25.50
2018-09-08T13:13:10.378Z,25.80
2018-09-08T13:15:38.746Z,25.60
2018-09-08T13:18:07.123Z,24.80
2018-09-08T13:20:35.488Z,24.50
2018-09-08T13:23:03.993Z,24.40
2018-09-08T13:25:32.343Z,24.80
2018-09-08T13:28:00.708Z,25.20
2018-09-08T13:30:29.027Z,25.90
2018-09-08T13:32:57.397Z,25.80
2018-09-08T13:35:25.789Z,26.40
2018-09-08T13:37:54.135Z,25.90
2018-09-08T13:40:22.519Z,25.30
2018-09-08T13:42:50.941Z,25.20
2018-09-08T13:45:19.411Z,24.90
2018-09-08T13:47:49.223Z,24.90
2018-09-08T13:50:17.615Z,25.40
2018-09-08T13:52:46.003Z,24.80
2018-09-08T13:55:14.361Z,25.00
2018-09-08T13:57:42.689Z,25.70
2018-09-08T14:00:11.736Z,24.10
2018-09-08T14:02:40.103Z,24.80
2018-09-08T14:05:08.483Z,25.70
2018-09-08T14:07:40.395Z,24.90
2018-09-08T14:10:08.759Z,24.30
2018-09-08T14:12:37.867Z,25.00
2018-09-08T14:15:06.274Z,25.30
2018-09-08T14:17:34.684Z,24.10
2018-09-08T14:20:03.041Z,24.10
2018-09-08T14:22:31.381Z,24.40
2018-09-08T14:24:59.916Z,24.80
2018-09-08T14:27:28.385Z,24.70
2018-09-08T14:29:56.750Z,25.30
2018-09-08T14:32:25.117Z,24.80
2018-09-08T14:34:53.483Z,25.00
2018-09-08T14:37:21.921Z,25.10
2018-09-08T14:39:50.284Z,25.50
2018-09-08T14:42:19.236Z,25.20
2018-09-08T14:44:47.607Z,25.50
2018-09-08T14:47:16.011Z,25.00
2018-09-08T14:49:44.479Z,25.10
2018-09-08T14:52:12.892Z,25.30
2018-09-08T14:54:41.241Z,25.20
2018-09-08T14:57:09.606Z,25.20
2018-09-08T14:59:37.937Z,25.30
2018-09-08T15:02:06.709Z,24.90
2018-09-08T15:04:35.085Z,24.80
2018-09-08T15:07:03.475Z,24.60
2018-09-08T15:09:31.840Z,24.50
2018-09-08T15:12:00.213Z,24.30
2018-09-08T15:14:28.634Z,24.20
2018-09-08T15:16:56.975Z,25.10
2018-09-08T15:19:25.702Z,24.80
2018-09-08T15:21:54.063Z,24.80
2018-09-08T15:24:22.419Z,24.40
2018-09-08T15:26:55.209Z,24.50
2018-09-08T15:29:24.284Z,24.40
2018-09-08T15:31:57.716Z,24.50
2018-09-08T15:34:36.410Z,24.20
2018-09-08T15:37:05.372Z,24.20
2018-09-08T15:39:39.270Z,24.70
2018-09-08T15:42:07.939Z,24.60
2018-09-08T15:44:39.405Z,25.10
2018-09-08T15:47:09.479Z,24.60
2018-09-08T15:49:38.571Z,24.70
2018-09-08T15:52:07.117Z,24.40
2018-09-08T15:54:35.476Z,24.60
2018-09-08T15:57:03.912Z,24.70
2018-09-08T15:59:32.300Z,24.80
2018-09-08T16:02:01.206Z,24.60
2018-09-08T16:04:29.695Z,24.10
2018-09-08T16:06:58.150Z,24.30
2018-09-08T16:09:36.294Z,24.30
2018-09-08T16:12:04.975Z,24.20
2018-09-08T16:14:33.474Z,24.20
2018-09-08T16:17:02.410Z,24.30
2018-09-08T16:19:31.146Z,24.20
2018-09-08T16:21:59.478Z,24.30
2018-09-08T16:24:27.854Z,24.30
2018-09-08T16:26:56.212Z,24.60
2018-09-08T16:29:24.573Z,24.90
2018-09-08T16:31:53.138Z,24.70
2018-09-08T16:34:21.473Z,24.20
2018-09-08T16:36:49.866Z,24.80
2018-09-08T16:39:18.223Z,25.40
2018-09-08T16:41:46.624Z,24.30
2018-09-08T16:44:15.022Z,24.70
2018-09-08T16:46:43.423Z,24.50
2018-09-08T16:49:11.786Z,24.80
2018-09-08T16:51:40.202Z,25.30
2018-09-08T16:54:08.537Z,24.80
2018-09-08T16:56:36.888Z,24.50
2018-09-08T16:59:05.370Z,25.20
2018-09-08T17:01:33.762Z,26.60
2018-09-08T17:04:02.258Z,25.90
2018-09-08T17:06:31.740Z,25.90
2018-09-08T17:09:00.161Z,26.50
2018-09-08T17:11:28.529Z,26.00
2018-09-08T17:13:56.915Z,27.10
2018-09-08T17:16:26.108Z,26.40
2018-09-08T17:18:54.461Z,27.80
2018-09-08T17:21:22.880Z,27.40
2018-09-08T17:23:51.274Z,28.00
2018-09-08T17:26:19.671Z,28.30
2018-09-08T17:28:48.024Z,28.60
2018-09-08T17:31:16.856Z,29.00
2018-09-08T17:33:45.279Z,29.60
2018-09-08T17:36:13.639Z,29.90
2018-09-08T17:38:42.112Z,30.10
2018-09-08T17:41:10.466Z,30.70
2018-09-08T17:43:38.820Z,30.50
2018-09-08T17:46:07.339Z,30.70
2018-09-08T17:48:35.721Z,31.10
2018-09-08T17:51:04.110Z,31.30
2018-09-08T17:53:32.552Z,31.30
2018-09-08T17:56:00.888Z,31.20
2018-09-08T17:58:29.346Z,31.40
2018-09-08T18:00:57.697Z,31.70
2018-09-08T18:03:26.128Z,32.20
2018-09-08T18:05:54.638Z,32.20
2018-09-08T18:08:24.739Z,32.80
2018-09-08T18:10:53.512Z,33.20
2018-09-08T18:13:22.271Z,33.50
2018-09-08T18:15:50.653Z,34.00
2018-09-08T18:18:19.188Z,34.20
2018-09-08T18:20:47.703Z,34.70
2018-09-08T18:23:16.269Z,34.90
2018-09-08T18:25:44.671Z,35.10
2018-09-08T18:28:13.139Z,35.30
2018-09-08T18:30:41.531Z,35.60
2018-09-08T18:33:09.979Z,36.00
2018-09-08T18:35:38.310Z,36.20
2018-09-08T18:38:06.673Z,36.60
2018-09-08T18:40:35.044Z,36.60
2018-09-08T18:43:03.454Z,36.90
2018-09-08T18:45:31.822Z,37.30
2018-09-08T18:48:00.215Z,38.00
2018-09-08T18:50:28.590Z,38.60
2018-09-08T18:52:56.943Z,38.50
2018-09-08T18:55:25.322Z,38.40
2018-09-08T19:00:28.374Z,38.20
2018-09-08T19:02:56.817Z,38.10
2018-09-08T19:05:25.610Z,38.80
2018-09-08T19:07:54.080Z,39.60
2018-09-08T19:10:23.004Z,40.10
2018-09-08T19:12:52.071Z,40.60
2018-09-08T19:15:22.131Z,40.60
2018-09-08T19:17:50.511Z,40.70
2018-09-08T19:20:24.229Z,40.70
2018-09-08T19:22:52.581Z,40.80
2018-09-08T19:25:20.920Z,40.70
2018-09-08T19:27:49.581Z,40.80
2018-09-08T19:30:18.089Z,41.10
2018-09-08T19:32:46.499Z,41.60
2018-09-08T19:35:20.191Z,42.10
2018-09-08T19:37:48.668Z,42.50
2018-09-08T19:40:22.429Z,42.80
2018-09-08T19:42:50.831Z,43.20
2018-09-08T19:45:21.226Z,43.40
2018-09-08T19:47:54.873Z,43.40
2018-09-08T19:50:23.300Z,43.30
2018-09-08T20:08:30.421Z,43.10
2018-09-08T20:10:59.402Z,44.60
2018-09-08T20:13:27.759Z,44.90
2018-09-08T20:15:56.121Z,45.00
2018-09-08T20:18:24.558Z,45.50
2018-09-08T20:20:52.906Z,45.60
2018-09-08T20:23:21.377Z,45.90
2018-09-08T20:25:49.703Z,46.30
2018-09-08T20:28:18.594Z,46.50
2018-09-08T20:30:48.118Z,46.50
2018-09-08T20:33:16.485Z,46.40
2018-09-08T20:35:44.874Z,46.40
2018-09-08T20:38:13.920Z,46.30
2018-09-08T20:40:42.386Z,46.40
2018-09-08T20:43:10.768Z,46.60
2018-09-08T20:45:39.101Z,46.70
2018-09-08T20:48:07.482Z,46.80
2018-09-08T20:50:37.020Z,47.00
2018-09-08T20:53:05.462Z,47.20
2018-09-08T20:55:33.808Z,47.10
2018-09-08T20:58:02.482Z,47.10
2018-09-08T21:00:30.946Z,47.20
2018-09-08T21:02:59.802Z,47.40
2018-09-08T21:05:28.176Z,47.60
2018-09-08T21:07:56.566Z,47.70
2018-09-08T21:10:24.972Z,47.90
2018-09-08T21:12:54.123Z,48.00
2018-09-08T21:15:22.480Z,48.30
2018-09-08T21:17:50.912Z,48.60
2018-09-08T21:20:19.263Z,48.90
2018-09-08T21:22:47.642Z,49.10
2018-09-08T21:25:16.002Z,49.20
2018-09-08T21:27:44.794Z,49.40
2018-09-08T21:30:13.077Z,49.70
2018-09-08T21:32:41.476Z,49.70
2018-09-08T21:35:09.922Z,49.80
2018-09-08T21:37:38.304Z,49.80
2018-09-08T21:40:06.805Z,49.80
2018-09-08T21:42:35.172Z,49.90
2018-09-08T21:45:03.626Z,50.10
2018-09-08T21:47:32.000Z,50.30
2018-09-08T21:50:00.888Z,50.60
2018-09-08T21:52:29.256Z,50.60
2018-09-08T21:54:57.582Z,50.80
2018-09-08T21:57:25.966Z,50.90
2018-09-08T21:59:54.297Z,51.10
2018-09-08T22:02:22.652Z,51.20
2018-09-08T22:04:51.057Z,51.20
2018-09-08T22:07:19.448Z,51.30
2018-09-08T22:09:47.846Z,51.40
2018-09-08T22:12:16.153Z,51.50
2018-09-08T22:14:51.201Z,51.70
2018-09-08T22:17:19.540Z,52.00
2018-09-08T22:19:47.887Z,51.70
2018-09-08T22:22:16.451Z,52.20
2018-09-08T22:24:44.790Z,52.30
2018-09-08T22:27:13.264Z,52.40
2018-09-08T22:29:41.653Z,52.50
2018-09-08T22:32:10.052Z,52.50
2018-09-08T22:34:38.389Z,52.70
2018-09-08T22:37:06.736Z,52.90
2018-09-08T22:39:35.122Z,52.90
2018-09-08T22:42:03.486Z,53.00
2018-09-08T22:44:31.908Z,53.10
2018-09-08T22:47:00.289Z,53.30
2018-09-08T22:49:28.608Z,53.60
2018-09-08T22:51:56.972Z,53.50
2018-09-08T22:54:25.363Z,53.40
2018-09-08T22:56:53.786Z,53.30
2018-09-08T22:59:22.112Z,53.50
2018-09-08T23:01:50.501Z,53.60
2018-09-08T23:04:18.861Z,53.80
2018-09-08T23:06:47.205Z,54.00
2018-09-08T23:09:16.221Z,54.20
2018-09-08T23:11:44.711Z,54.30
2018-09-08T23:14:13.058Z,54.40
2018-09-08T23:16:41.422Z,54.80
2018-09-08T23:19:09.755Z,55.00
2018-09-08T23:21:38.107Z,54.90
2018-09-08T23:24:06.471Z,54.90
2018-09-08T23:26:34.919Z,54.90
2018-09-08T23:29:03.267Z,54.90
2018-09-08T23:31:31.616Z,54.90
2018-09-08T23:34:00.721Z,54.90
2018-09-08T23:36:29.075Z,55.10
2018-09-08T23:38:57.423Z,55.40
2018-09-08T23:41:25.859Z,55.60
2018-09-08T23:43:54.197Z,55.70
2018-09-08T23:46:22.536Z,55.80
2018-09-08T23:48:51.616Z,56.00
2018-09-08T23:51:20.677Z,56.10
2018-09-08T23:53:49.337Z,56.20
2018-09-08T23:56:17.725Z,56.20
2018-09-08T23:58:46.141Z,56.20
